sensor_id;sensor_type;location;lat;lon;timestamp;pressure;altitude;pressure_sealevel;temperature;humidity
15604;BME280;7902;49.042;9.092;2023-10-19T00:01:58;97471.72;;;14.60;64.27
15604;BME280;7902;49.042;9.092;2023-10-19T00:04:25;97462.56;;;14.70;63.36
15604;BME280;7902;49.042;9.092;2023-10-19T00:06:52;97458.81;;;14.65;64.09
15604;BME280;7902;49.042;9.092;2023-10-19T00:09:19;97441.34;;;14.64;63.90
15604;BME280;7902;49.042;9.092;2023-10-19T00:11:46;97438.88;;;14.62;64.08
15604;BME280;7902;49.042;9.092;2023-10-19T00:14:13;97446.25;;;14.67;64.91
15604;BME280;7902;49.042;9.092;2023-10-19T00:16:43;97454.03;;;14.68;65.09
15604;BME280;7902;49.042;9.092;2023-10-19T00:19:16;97432.47;;;14.57;64.23
15604;BME280;7902;49.042;9.092;2023-10-19T00:21:46;97440.16;;;14.66;65.31
15604;BME280;7902;49.042;9.092;2023-10-19T00:24:21;97440.38;;;14.57;65.73
15604;BME280;7902;49.042;9.092;2023-10-19T00:26:50;97442.97;;;14.65;65.65
15604;BME280;7902;49.042;9.092;2023-10-19T00:29:20;97448.59;;;14.62;64.64
15604;BME280;7902;49.042;9.092;2023-10-19T00:32:06;97442.88;;;14.58;64.73
15604;BME280;7902;49.042;9.092;2023-10-19T00:34:32;97452.25;;;14.61;64.59
15604;BME280;7902;49.042;9.092;2023-10-19T00:36:59;97441.97;;;14.66;64.98
15604;BME280;7902;49.042;9.092;2023-10-19T00:39:36;97441.16;;;14.65;65.13
15604;BME280;7902;49.042;9.092;2023-10-19T00:42:20;97440.63;;;14.70;64.50
15604;BME280;7902;49.042;9.092;2023-10-19T00:44:49;97439.78;;;14.69;64.57
15604;BME280;7902;49.042;9.092;2023-10-19T00:47:16;97432.97;;;14.75;65.26
15604;BME280;7902;49.042;9.092;2023-10-19T00:49:48;97420.00;;;14.65;65.57
15604;BME280;7902;49.042;9.092;2023-10-19T00:52:14;97416.97;;;14.76;65.45
15604;BME280;7902;49.042;9.092;2023-10-19T00:54:49;97414.78;;;14.80;64.37
15604;BME280;7902;49.042;9.092;2023-10-19T00:57:20;97418.13;;;14.74;64.67
15604;BME280;7902;49.042;9.092;2023-10-19T00:59:47;97414.50;;;14.75;64.76
15604;BME280;7902;49.042;9.092;2023-10-19T01:02:13;97411.69;;;14.76;64.67
15604;BME280;7902;49.042;9.092;2023-10-19T01:04:45;97415.16;;;14.77;64.46
15604;BME280;7902;49.042;9.092;2023-10-19T01:07:17;97417.13;;;14.75;63.47
15604;BME280;7902;49.042;9.092;2023-10-19T01:10:00;97416.78;;;14.78;64.69
15604;BME280;7902;49.042;9.092;2023-10-19T01:12:26;97412.66;;;14.75;63.78
15604;BME280;7902;49.042;9.092;2023-10-19T01:17:41;97404.69;;;14.61;62.83
15604;BME280;7902;49.042;9.092;2023-10-19T01:20:16;97403.47;;;14.71;63.03
15604;BME280;7902;49.042;9.092;2023-10-19T01:22:53;97399.81;;;14.72;62.95
15604;BME280;7902;49.042;9.092;2023-10-19T01:25:54;97385.09;;;14.78;64.45
15604;BME280;7902;49.042;9.092;2023-10-19T01:28:29;97387.72;;;14.78;63.69
15604;BME280;7902;49.042;9.092;2023-10-19T01:31:10;97389.25;;;14.72;62.51
15604;BME280;7902;49.042;9.092;2023-10-19T01:33:48;97390.72;;;14.75;63.32
15604;BME280;7902;49.042;9.092;2023-10-19T01:36:14;97380.34;;;14.73;63.74
15604;BME280;7902;49.042;9.092;2023-10-19T01:38:41;97378.41;;;14.67;63.12
15604;BME280;7902;49.042;9.092;2023-10-19T01:41:08;97366.47;;;14.71;62.29
15604;BME280;7902;49.042;9.092;2023-10-19T01:43:44;97360.09;;;14.66;62.81
15604;BME280;7902;49.042;9.092;2023-10-19T01:46:11;97358.38;;;14.73;63.15
15604;BME280;7902;49.042;9.092;2023-10-19T01:48:41;97364.28;;;14.75;63.36
15604;BME280;7902;49.042;9.092;2023-10-19T01:51:08;97363.59;;;14.81;62.81
15604;BME280;7902;49.042;9.092;2023-10-19T01:53:41;97357.03;;;14.77;62.82
15604;BME280;7902;49.042;9.092;2023-10-19T01:56:11;97359.66;;;14.77;63.83
15604;BME280;7902;49.042;9.092;2023-10-19T01:58:39;97355.94;;;14.86;63.13
15604;BME280;7902;49.042;9.092;2023-10-19T02:01:07;97355.47;;;14.82;62.59
15604;BME280;7902;49.042;9.092;2023-10-19T02:03:39;97356.84;;;14.93;62.60
15604;BME280;7902;49.042;9.092;2023-10-19T02:06:10;97362.59;;;14.97;62.83
15604;BME280;7902;49.042;9.092;2023-10-19T02:08:51;97363.94;;;14.92;64.08
15604;BME280;7902;49.042;9.092;2023-10-19T02:11:22;97356.56;;;14.88;65.01
15604;BME280;7902;49.042;9.092;2023-10-19T02:13:49;97361.94;;;14.80;66.04
15604;BME280;7902;49.042;9.092;2023-10-19T02:16:16;97357.22;;;14.90;64.85
15604;BME280;7902;49.042;9.092;2023-10-19T02:18:43;97349.56;;;14.95;63.12
15604;BME280;7902;49.042;9.092;2023-10-19T02:21:10;97356.56;;;15.03;64.10
15604;BME280;7902;49.042;9.092;2023-10-19T02:23:41;97357.31;;;14.97;63.46
15604;BME280;7902;49.042;9.092;2023-10-19T02:26:10;97344.09;;;14.82;62.23
15604;BME280;7902;49.042;9.092;2023-10-19T02:28:39;97336.34;;;14.80;62.68
15604;BME280;7902;49.042;9.092;2023-10-19T02:31:05;97322.84;;;14.75;63.12
15604;BME280;7902;49.042;9.092;2023-10-19T02:33:42;97326.22;;;14.84;61.68
15604;BME280;7902;49.042;9.092;2023-10-19T02:36:14;97322.97;;;14.82;62.46
15604;BME280;7902;49.042;9.092;2023-10-19T02:38:45;97317.84;;;14.80;62.61
15604;BME280;7902;49.042;9.092;2023-10-19T02:41:18;97320.94;;;14.84;62.03
15604;BME280;7902;49.042;9.092;2023-10-19T02:43:45;97321.22;;;14.89;61.46
15604;BME280;7902;49.042;9.092;2023-10-19T02:46:13;97314.03;;;14.83;62.66
15604;BME280;7902;49.042;9.092;2023-10-19T02:48:39;97308.75;;;14.83;62.44
15604;BME280;7902;49.042;9.092;2023-10-19T02:51:11;97300.06;;;14.89;61.75
15604;BME280;7902;49.042;9.092;2023-10-19T02:53:39;97300.81;;;14.83;61.41
15604;BME280;7902;49.042;9.092;2023-10-19T02:56:15;97290.88;;;14.85;62.06
15604;BME280;7902;49.042;9.092;2023-10-19T02:58:49;97285.59;;;14.85;62.07
15604;BME280;7902;49.042;9.092;2023-10-19T03:01:17;97284.78;;;14.84;62.33
15604;BME280;7902;49.042;9.092;2023-10-19T03:03:48;97270.94;;;14.82;61.49
15604;BME280;7902;49.042;9.092;2023-10-19T03:06:18;97279.41;;;14.78;64.27
15604;BME280;7902;49.042;9.092;2023-10-19T03:08:46;97276.28;;;14.89;63.67
15604;BME280;7902;49.042;9.092;2023-10-19T03:11:13;97272.81;;;14.88;62.77
15604;BME280;7902;49.042;9.092;2023-10-19T03:13:40;97265.81;;;14.96;63.43
15604;BME280;7902;49.042;9.092;2023-10-19T03:16:07;97267.81;;;14.93;63.52
15604;BME280;7902;49.042;9.092;2023-10-19T03:18:35;97262.47;;;14.87;62.41
15604;BME280;7902;49.042;9.092;2023-10-19T03:21:02;97265.94;;;14.87;63.20
15604;BME280;7902;49.042;9.092;2023-10-19T03:23:28;97261.97;;;14.98;63.40
15604;BME280;7902;49.042;9.092;2023-10-19T03:25:55;97267.38;;;14.90;62.37
15604;BME280;7902;49.042;9.092;2023-10-19T03:28:44;97268.28;;;14.82;64.53
15604;BME280;7902;49.042;9.092;2023-10-19T03:31:11;97269.28;;;14.96;65.05
15604;BME280;7902;49.042;9.092;2023-10-19T03:33:46;97261.97;;;14.83;63.11
15604;BME280;7902;49.042;9.092;2023-10-19T03:36:22;97259.63;;;14.88;62.76
15604;BME280;7902;49.042;9.092;2023-10-19T03:38:50;97258.28;;;14.78;62.99
15604;BME280;7902;49.042;9.092;2023-10-19T03:41:17;97262.47;;;14.87;63.28
15604;BME280;7902;49.042;9.092;2023-10-19T03:43:48;97255.34;;;14.73;62.24
15604;BME280;7902;49.042;9.092;2023-10-19T03:46:15;97249.69;;;14.76;62.44
15604;BME280;7902;49.042;9.092;2023-10-19T03:49:03;97249.03;;;14.88;62.61
15604;BME280;7902;49.042;9.092;2023-10-19T03:51:38;97251.34;;;14.77;61.94
15604;BME280;7902;49.042;9.092;2023-10-19T03:54:24;97245.13;;;14.84;62.99
15604;BME280;7902;49.042;9.092;2023-10-19T03:56:51;97239.13;;;14.76;62.59
15604;BME280;7902;49.042;9.092;2023-10-19T03:59:18;97240.41;;;14.80;62.41
15604;BME280;7902;49.042;9.092;2023-10-19T04:01:44;97232.19;;;14.75;62.31
15604;BME280;7902;49.042;9.092;2023-10-19T04:04:10;97242.78;;;14.75;61.64
15604;BME280;7902;49.042;9.092;2023-10-19T04:06:36;97237.84;;;14.72;62.44
15604;BME280;7902;49.042;9.092;2023-10-19T04:09:03;97226.63;;;14.70;62.30
15604;BME280;7902;49.042;9.092;2023-10-19T04:11:32;97226.63;;;14.70;62.88
15604;BME280;7902;49.042;9.092;2023-10-19T04:14:10;97224.38;;;14.67;63.38
15604;BME280;7902;49.042;9.092;2023-10-19T04:16:36;97225.66;;;14.71;62.32
15604;BME280;7902;49.042;9.092;2023-10-19T04:19:03;97230.38;;;14.75;62.77
15604;BME280;7902;49.042;9.092;2023-10-19T04:21:30;97220.75;;;14.68;61.94
15604;BME280;7902;49.042;9.092;2023-10-19T04:23:56;97215.19;;;14.77;62.30
15604;BME280;7902;49.042;9.092;2023-10-19T04:26:22;97208.69;;;14.80;62.97
15604;BME280;7902;49.042;9.092;2023-10-19T04:28:50;97217.81;;;14.77;61.98
15604;BME280;7902;49.042;9.092;2023-10-19T04:31:17;97208.63;;;14.73;61.86
15604;BME280;7902;49.042;9.092;2023-10-19T04:33:43;97211.53;;;14.78;62.10
15604;BME280;7902;49.042;9.092;2023-10-19T04:36:12;97210.72;;;14.78;62.41
15604;BME280;7902;49.042;9.092;2023-10-19T04:38:39;97208.09;;;14.78;62.72
15604;BME280;7902;49.042;9.092;2023-10-19T04:41:06;97205.44;;;14.78;63.24
15604;BME280;7902;49.042;9.092;2023-10-19T04:43:36;97201.75;;;14.79;62.33
15604;BME280;7902;49.042;9.092;2023-10-19T04:46:07;97203.41;;;14.80;61.82
15604;BME280;7902;49.042;9.092;2023-10-19T04:48:37;97204.41;;;14.79;62.46
15604;BME280;7902;49.042;9.092;2023-10-19T04:51:06;97198.94;;;14.80;61.96
15604;BME280;7902;49.042;9.092;2023-10-19T04:53:33;97193.94;;;14.71;62.79
15604;BME280;7902;49.042;9.092;2023-10-19T04:55:58;97200.97;;;14.78;63.30
15604;BME280;7902;49.042;9.092;2023-10-19T04:58:27;97206.97;;;14.87;62.27
15604;BME280;7902;49.042;9.092;2023-10-19T05:00:54;97205.72;;;14.83;62.88
15604;BME280;7902;49.042;9.092;2023-10-19T05:03:20;97202.97;;;14.76;63.21
15604;BME280;7902;49.042;9.092;2023-10-19T05:05:46;97202.69;;;14.71;63.19
15604;BME280;7902;49.042;9.092;2023-10-19T05:08:11;97206.16;;;14.72;63.35
15604;BME280;7902;49.042;9.092;2023-10-19T05:10:37;97197.84;;;14.75;62.69
15604;BME280;7902;49.042;9.092;2023-10-19T05:13:03;97191.31;;;14.71;62.30
15604;BME280;7902;49.042;9.092;2023-10-19T05:15:30;97192.31;;;14.70;63.90
15604;BME280;7902;49.042;9.092;2023-10-19T05:17:56;97190.75;;;14.75;62.62
15604;BME280;7902;49.042;9.092;2023-10-19T05:20:22;97195.59;;;14.72;63.33
15604;BME280;7902;49.042;9.092;2023-10-19T05:22:49;97196.75;;;14.69;63.60
15604;BME280;7902;49.042;9.092;2023-10-19T05:25:15;97193.50;;;14.67;63.74
15604;BME280;7902;49.042;9.092;2023-10-19T05:27:41;97199.06;;;14.72;63.45
15604;BME280;7902;49.042;9.092;2023-10-19T05:30:08;97194.50;;;14.66;64.09
15604;BME280;7902;49.042;9.092;2023-10-19T05:32:37;97201.59;;;14.66;63.80
15604;BME280;7902;49.042;9.092;2023-10-19T05:35:04;97201.44;;;14.67;63.01
15604;BME280;7902;49.042;9.092;2023-10-19T05:37:31;97199.22;;;14.71;63.33
15604;BME280;7902;49.042;9.092;2023-10-19T05:39:57;97192.69;;;14.67;63.58
15604;BME280;7902;49.042;9.092;2023-10-19T05:42:24;97195.03;;;14.76;63.19
15604;BME280;7902;49.042;9.092;2023-10-19T05:44:50;97193.50;;;14.67;63.73
15604;BME280;7902;49.042;9.092;2023-10-19T05:47:17;97198.13;;;14.80;62.34
15604;BME280;7902;49.042;9.092;2023-10-19T05:49:43;97202.59;;;14.79;63.07
15604;BME280;7902;49.042;9.092;2023-10-19T05:52:09;97202.84;;;14.84;63.96
15604;BME280;7902;49.042;9.092;2023-10-19T05:54:36;97205.22;;;14.79;63.91
15604;BME280;7902;49.042;9.092;2023-10-19T05:57:03;97202.03;;;14.84;63.49
15604;BME280;7902;49.042;9.092;2023-10-19T05:59:34;97201.47;;;14.88;62.67
15604;BME280;7902;49.042;9.092;2023-10-19T06:01:59;97202.41;;;14.81;63.15
15604;BME280;7902;49.042;9.092;2023-10-19T06:04:25;97208.78;;;14.86;62.90
15604;BME280;7902;49.042;9.092;2023-10-19T06:06:51;97196.84;;;14.76;62.95
15604;BME280;7902;49.042;9.092;2023-10-19T06:09:17;97209.34;;;14.82;62.69
15604;BME280;7902;49.042;9.092;2023-10-19T06:11:44;97213.09;;;14.87;63.93
15604;BME280;7902;49.042;9.092;2023-10-19T06:14:10;97211.28;;;14.73;65.49
15604;BME280;7902;49.042;9.092;2023-10-19T06:16:36;97212.72;;;14.76;66.01
15604;BME280;7902;49.042;9.092;2023-10-19T06:19:03;97207.88;;;14.79;64.82
15604;BME280;7902;49.042;9.092;2023-10-19T06:21:29;97207.44;;;14.76;64.35
15604;BME280;7902;49.042;9.092;2023-10-19T06:23:56;97212.06;;;14.74;63.01
15604;BME280;7902;49.042;9.092;2023-10-19T06:26:22;97218.09;;;14.82;63.56
15604;BME280;7902;49.042;9.092;2023-10-19T06:28:48;97212.34;;;14.79;63.57
15604;BME280;7902;49.042;9.092;2023-10-19T06:31:13;97213.09;;;14.73;62.63
15604;BME280;7902;49.042;9.092;2023-10-19T06:33:41;97209.41;;;14.74;62.87
15604;BME280;7902;49.042;9.092;2023-10-19T06:36:07;97202.53;;;14.73;63.81
15604;BME280;7902;49.042;9.092;2023-10-19T06:38:33;97215.19;;;14.77;63.85
15604;BME280;7902;49.042;9.092;2023-10-19T06:40:59;97205.44;;;14.78;63.05
15604;BME280;7902;49.042;9.092;2023-10-19T06:43:25;97205.06;;;14.81;63.48
15604;BME280;7902;49.042;9.092;2023-10-19T06:45:55;97204.34;;;14.87;63.00
15604;BME280;7902;49.042;9.092;2023-10-19T06:48:21;97203.41;;;14.80;63.17
15604;BME280;7902;49.042;9.092;2023-10-19T06:50:47;97196.13;;;14.82;63.33
15604;BME280;7902;49.042;9.092;2023-10-19T06:53:13;97191.19;;;14.79;63.94
15604;BME280;7902;49.042;9.092;2023-10-19T06:55:39;97192.50;;;14.83;62.74
15604;BME280;7902;49.042;9.092;2023-10-19T06:58:06;97198.13;;;14.80;62.73
15604;BME280;7902;49.042;9.092;2023-10-19T07:00:33;97195.69;;;14.78;62.36
15604;BME280;7902;49.042;9.092;2023-10-19T07:02:59;97190.84;;;14.82;62.79
15604;BME280;7902;49.042;9.092;2023-10-19T07:05:26;97199.94;;;14.94;62.76
15604;BME280;7902;49.042;9.092;2023-10-19T07:07:56;97196.97;;;14.82;63.19
15604;BME280;7902;49.042;9.092;2023-10-19T07:10:23;97194.31;;;14.82;62.45
15604;BME280;7902;49.042;9.092;2023-10-19T07:12:53;97192.84;;;14.80;63.35
15604;BME280;7902;49.042;9.092;2023-10-19T07:15:21;97198.13;;;14.80;63.66
15604;BME280;7902;49.042;9.092;2023-10-19T07:17:51;97190.84;;;14.82;62.78
15604;BME280;7902;49.042;9.092;2023-10-19T07:20:21;97193.13;;;14.85;61.87
15604;BME280;7902;49.042;9.092;2023-10-19T07:22:55;97188.66;;;14.85;62.30
15604;BME280;7902;49.042;9.092;2023-10-19T07:25:22;97196.41;;;14.87;62.25
15604;BME280;7902;49.042;9.092;2023-10-19T07:27:49;97191.94;;;14.87;62.75
15604;BME280;7902;49.042;9.092;2023-10-19T07:30:17;97199.66;;;14.89;62.64
15604;BME280;7902;49.042;9.092;2023-10-19T07:32:48;97188.09;;;14.90;61.88
15604;BME280;7902;49.042;9.092;2023-10-19T07:35:18;97190.91;;;14.88;62.13
15604;BME280;7902;49.042;9.092;2023-10-19T07:37:45;97199.31;;;14.92;62.02
15604;BME280;7902;49.042;9.092;2023-10-19T07:40:11;97200.63;;;15.03;61.51
15604;BME280;7902;49.042;9.092;2023-10-19T07:42:40;97204.94;;;14.89;61.73
15604;BME280;7902;49.042;9.092;2023-10-19T07:45:06;97201.31;;;14.90;61.77
15604;BME280;7902;49.042;9.092;2023-10-19T07:47:38;97203.13;;;14.89;61.75
15604;BME280;7902;49.042;9.092;2023-10-19T07:50:07;97201.31;;;14.90;61.73
15604;BME280;7902;49.042;9.092;2023-10-19T07:52:38;97193.81;;;14.93;62.04
15604;BME280;7902;49.042;9.092;2023-10-19T07:55:05;97197.28;;;14.94;61.17
15604;BME280;7902;49.042;9.092;2023-10-19T07:57:32;97193.66;;;14.95;60.99
15604;BME280;7902;49.042;9.092;2023-10-19T08:00:00;97182.91;;;14.97;62.10
15604;BME280;7902;49.042;9.092;2023-10-19T08:02:25;97182.25;;;14.94;61.73
15604;BME280;7902;49.042;9.092;2023-10-19T08:04:52;97192.91;;;15.01;61.93
15604;BME280;7902;49.042;9.092;2023-10-19T08:07:18;97171.69;;;14.94;61.38
15604;BME280;7902;49.042;9.092;2023-10-19T08:09:45;97167.31;;;15.02;62.27
15604;BME280;7902;49.042;9.092;2023-10-19T08:12:10;97166.66;;;15.00;61.59
15604;BME280;7902;49.042;9.092;2023-10-19T08:14:39;97158.09;;;14.98;62.42
15604;BME280;7902;49.042;9.092;2023-10-19T08:17:05;97163.47;;;15.04;61.31
15604;BME280;7902;49.042;9.092;2023-10-19T08:19:34;97155.81;;;15.09;61.71
15604;BME280;7902;49.042;9.092;2023-10-19T08:22:01;97164.13;;;15.06;61.82
15604;BME280;7902;49.042;9.092;2023-10-19T08:24:27;97159.44;;;15.08;62.45
15604;BME280;7902;49.042;9.092;2023-10-19T08:26:56;97168.28;;;15.15;61.29
15604;BME280;7902;49.042;9.092;2023-10-19T08:29:22;97168.91;;;15.17;61.76
15604;BME280;7902;49.042;9.092;2023-10-19T08:31:49;97162.78;;;15.17;61.96
15604;BME280;7902;49.042;9.092;2023-10-19T08:34:15;97159.13;;;15.18;62.39
15604;BME280;7902;49.042;9.092;2023-10-19T08:36:41;97153.84;;;15.18;61.73
15604;BME280;7902;49.042;9.092;2023-10-19T08:39:09;97165.78;;;15.28;61.91
15604;BME280;7902;49.042;9.092;2023-10-19T08:41:39;97154.19;;;15.29;62.17
15604;BME280;7902;49.042;9.092;2023-10-19T08:44:06;97153.41;;;15.35;61.31
15604;BME280;7902;49.042;9.092;2023-10-19T08:46:42;97156.97;;;15.43;61.74
15604;BME280;7902;49.042;9.092;2023-10-19T08:49:14;97156.13;;;15.42;60.99
15604;BME280;7902;49.042;9.092;2023-10-19T08:51:44;97154.22;;;15.51;61.50
15604;BME280;7902;49.042;9.092;2023-10-19T08:54:14;97153.38;;;15.50;60.63
15604;BME280;7902;49.042;9.092;2023-10-19T08:56:41;97154.66;;;15.54;61.47
15604;BME280;7902;49.042;9.092;2023-10-19T08:59:08;97146.53;;;15.56;60.97
15604;BME280;7902;49.042;9.092;2023-10-19T09:01:37;97146.16;;;15.59;61.95
15604;BME280;7902;49.042;9.092;2023-10-19T09:04:03;97145.78;;;15.62;61.66
15604;BME280;7902;49.042;9.092;2023-10-19T09:06:35;97142.13;;;15.63;61.47
15604;BME280;7902;49.042;9.092;2023-10-19T09:09:13;97136.69;;;15.71;61.72
15604;BME280;7902;49.042;9.092;2023-10-19T09:11:43;97138.13;;;15.73;62.34
15604;BME280;7902;49.042;9.092;2023-10-19T09:14:09;97138.13;;;15.73;62.60
15604;BME280;7902;49.042;9.092;2023-10-19T09:16:54;97122.91;;;15.75;62.47
15604;BME280;7902;49.042;9.092;2023-10-19T09:22:02;97118.91;;;15.86;63.86
15604;BME280;7902;49.042;9.092;2023-10-19T09:24:34;97126.88;;;15.93;63.51
15604;BME280;7902;49.042;9.092;2023-10-19T09:27:02;97128.72;;;15.92;63.16
15604;BME280;7902;49.042;9.092;2023-10-19T09:29:29;97121.41;;;15.94;63.06
15604;BME280;7902;49.042;9.092;2023-10-19T09:31:58;97122.25;;;16.01;63.47
15604;BME280;7902;49.042;9.092;2023-10-19T09:34:29;97122.06;;;16.03;63.32
15604;BME280;7902;49.042;9.092;2023-10-19T09:37:02;97123.31;;;16.07;63.77
15604;BME280;7902;49.042;9.092;2023-10-19T09:39:32;97125.16;;;16.06;62.76
15604;BME280;7902;49.042;9.092;2023-10-19T09:42:08;97124.78;;;16.09;63.17
15604;BME280;7902;49.042;9.092;2023-10-19T09:44:43;97116.63;;;16.11;63.29
15604;BME280;7902;49.042;9.092;2023-10-19T09:47:21;97107.31;;;16.15;64.06
15604;BME280;7902;49.042;9.092;2023-10-19T09:49:49;97109.50;;;16.11;63.32
15604;BME280;7902;49.042;9.092;2023-10-19T09:52:16;97107.09;;;16.16;63.95
15604;BME280;7902;49.042;9.092;2023-10-19T09:54:50;97109.22;;;16.28;63.98
15604;BME280;7902;49.042;9.092;2023-10-19T09:57:25;97108.19;;;16.29;63.39
15604;BME280;7902;49.042;9.092;2023-10-19T10:00:00;97096.19;;;16.33;63.60
15604;BME280;7902;49.042;9.092;2023-10-19T10:02:34;97095.59;;;16.37;65.46
15604;BME280;7902;49.042;9.092;2023-10-19T10:04:59;97096.22;;;16.39;65.94
15604;BME280;7902;49.042;9.092;2023-10-19T10:07:25;97102.72;;;16.37;63.71
15604;BME280;7902;49.042;9.092;2023-10-19T10:09:52;97097.03;;;16.33;64.17
15604;BME280;7902;49.042;9.092;2023-10-19T10:12:23;97095.38;;;16.39;64.62
15604;BME280;7902;49.042;9.092;2023-10-19T10:17:24;97100.06;;;16.71;71.82
15604;BME280;7902;49.042;9.092;2023-10-19T10:19:56;97098.50;;;16.96;70.79
15604;BME280;7902;49.042;9.092;2023-10-19T10:22:45;97089.00;;;17.35;74.32
15604;BME280;7902;49.042;9.092;2023-10-19T10:25:31;97091.66;;;17.41;71.93
15604;BME280;7902;49.042;9.092;2023-10-19T10:27:58;97091.88;;;17.53;71.45
15604;BME280;7902;49.042;9.092;2023-10-19T10:30:24;97089.63;;;17.56;69.75
15604;BME280;7902;49.042;9.092;2023-10-19T10:32:51;97088.78;;;17.43;69.78
15604;BME280;7902;49.042;9.092;2023-10-19T10:38:09;97085.53;;;17.34;69.63
15604;BME280;7902;49.042;9.092;2023-10-19T10:40:47;97086.75;;;17.38;68.72
15604;BME280;7902;49.042;9.092;2023-10-19T10:43:14;97081.25;;;17.27;67.54
15604;BME280;7902;49.042;9.092;2023-10-19T10:45:41;97079.41;;;17.27;67.23
15604;BME280;7902;49.042;9.092;2023-10-19T10:48:14;97071.66;;;17.26;67.27
15604;BME280;7902;49.042;9.092;2023-10-19T10:50:40;97080.03;;;17.23;66.95
15604;BME280;7902;49.042;9.092;2023-10-19T10:53:10;97084.25;;;17.10;67.04
15604;BME280;7902;49.042;9.092;2023-10-19T10:55:41;97087.31;;;17.14;66.87
15604;BME280;7902;49.042;9.092;2023-10-19T10:58:07;97081.63;;;17.10;66.72
15604;BME280;7902;49.042;9.092;2023-10-19T11:00:33;97088.56;;;17.11;67.03
15604;BME280;7902;49.042;9.092;2023-10-19T11:03:02;97076.13;;;17.12;66.71
15604;BME280;7902;49.042;9.092;2023-10-19T11:05:30;97086.72;;;17.19;67.14
15604;BME280;7902;49.042;9.092;2023-10-19T11:08:05;97079.38;;;17.14;67.30
15604;BME280;7902;49.042;9.092;2023-10-19T11:10:33;97082.22;;;17.19;66.28
15604;BME280;7902;49.042;9.092;2023-10-19T11:13:02;97082.47;;;17.18;66.79
15604;BME280;7902;49.042;9.092;2023-10-19T11:15:28;97088.78;;;17.17;66.37
15604;BME280;7902;49.042;9.092;2023-10-19T11:17:54;97090.00;;;17.21;67.46
15604;BME280;7902;49.042;9.092;2023-10-19T11:20:21;97079.41;;;17.21;66.16
15604;BME280;7902;49.042;9.092;2023-10-19T11:22:49;97075.72;;;17.22;66.01
15604;BME280;7902;49.042;9.092;2023-10-19T11:25:23;97078.16;;;17.17;66.34
15604;BME280;7902;49.042;9.092;2023-10-19T11:27:50;97073.66;;;17.24;67.05
15604;BME280;7902;49.042;9.092;2023-10-19T11:30:26;97065.72;;;17.24;66.79
15604;BME280;7902;49.042;9.092;2023-10-19T11:32:53;97071.03;;;17.24;67.51
15604;BME280;7902;49.042;9.092;2023-10-19T11:35:23;97077.56;;;17.21;67.76
15604;BME280;7902;49.042;9.092;2023-10-19T11:37:54;97084.91;;;17.26;66.90
15604;BME280;7902;49.042;9.092;2023-10-19T11:40:21;97083.28;;;17.25;66.79
15604;BME280;7902;49.042;9.092;2023-10-19T11:42:48;97088.16;;;17.21;66.73
15604;BME280;7902;49.042;9.092;2023-10-19T11:45:14;97083.47;;;17.30;66.68
15604;BME280;7902;49.042;9.092;2023-10-19T11:47:43;97064.91;;;17.30;65.27
15604;BME280;7902;49.042;9.092;2023-10-19T11:50:09;97049.19;;;17.28;66.10
15604;BME280;7902;49.042;9.092;2023-10-19T11:52:38;97049.63;;;17.32;65.94
15604;BME280;7902;49.042;9.092;2023-10-19T11:55:04;97051.25;;;17.33;65.96
15604;BME280;7902;49.042;9.092;2023-10-19T11:57:31;97035.13;;;17.34;67.05
15604;BME280;7902;49.042;9.092;2023-10-19T11:59:58;97031.06;;;17.32;66.85
15604;BME280;7902;49.042;9.092;2023-10-19T12:02:25;97022.06;;;17.33;66.04
15604;BME280;7902;49.042;9.092;2023-10-19T12:04:52;97019.41;;;17.33;65.70
15604;BME280;7902;49.042;9.092;2023-10-19T12:07:18;97021.88;;;17.34;66.30
15604;BME280;7902;49.042;9.092;2023-10-19T12:09:44;97013.72;;;17.36;66.32
15604;BME280;7902;49.042;9.092;2023-10-19T12:12:10;97024.72;;;17.33;68.00
15604;BME280;7902;49.042;9.092;2023-10-19T12:14:36;97009.63;;;17.33;66.26
15604;BME280;7902;49.042;9.092;2023-10-19T12:17:02;97002.69;;;17.39;67.01
15604;BME280;7902;49.042;9.092;2023-10-19T12:19:29;96999.44;;;17.37;66.90
15604;BME280;7902;49.042;9.092;2023-10-19T12:21:56;96997.38;;;17.39;67.04
15604;BME280;7902;49.042;9.092;2023-10-19T12:24:22;97003.91;;;17.36;67.21
15604;BME280;7902;49.042;9.092;2023-10-19T12:26:48;96996.56;;;17.38;66.54
15604;BME280;7902;49.042;9.092;2023-10-19T12:29:14;96997.59;;;17.37;67.13
15604;BME280;7902;49.042;9.092;2023-10-19T12:31:43;96998.38;;;17.38;66.16
15604;BME280;7902;49.042;9.092;2023-10-19T12:34:09;96995.75;;;17.44;66.75
15604;BME280;7902;49.042;9.092;2023-10-19T12:36:37;96996.56;;;17.45;66.62
15604;BME280;7902;49.042;9.092;2023-10-19T12:39:03;96995.94;;;17.43;66.38
15604;BME280;7902;49.042;9.092;2023-10-19T12:41:32;96995.94;;;17.43;66.39
15604;BME280;7902;49.042;9.092;2023-10-19T12:43:59;97000.22;;;17.44;66.47
15604;BME280;7902;49.042;9.092;2023-10-19T12:46:28;97001.06;;;17.44;66.43
15604;BME280;7902;49.042;9.092;2023-10-19T12:48:58;97003.91;;;17.43;65.44
15604;BME280;7902;49.042;9.092;2023-10-19T12:51:24;97012.06;;;17.48;66.11
15604;BME280;7902;49.042;9.092;2023-10-19T12:53:51;97017.38;;;17.48;65.83
15604;BME280;7902;49.042;9.092;2023-10-19T12:56:21;97012.06;;;17.48;65.50
15604;BME280;7902;49.042;9.092;2023-10-19T12:58:50;97006.34;;;17.44;66.88
15604;BME280;7902;49.042;9.092;2023-10-19T13:01:16;97010.03;;;17.43;66.67
15604;BME280;7902;49.042;9.092;2023-10-19T13:03:43;97008.00;;;17.45;66.84
15604;BME280;7902;49.042;9.092;2023-10-19T13:06:13;96999.41;;;17.50;66.28
15604;BME280;7902;49.042;9.092;2023-10-19T13:08:39;97005.53;;;17.50;67.14
15604;BME280;7902;49.042;9.092;2023-10-19T13:11:07;97004.72;;;17.50;66.64
15604;BME280;7902;49.042;9.092;2023-10-19T13:13:33;97006.56;;;17.56;66.45
15604;BME280;7902;49.042;9.092;2023-10-19T13:16:02;97009.81;;;17.51;66.49
15604;BME280;7902;49.042;9.092;2023-10-19T13:18:31;97015.34;;;17.50;67.21
15604;BME280;7902;49.042;9.092;2023-10-19T13:21:00;97013.69;;;17.49;66.20
15604;BME280;7902;49.042;9.092;2023-10-19T13:23:35;97013.28;;;17.52;67.29
15604;BME280;7902;49.042;9.092;2023-10-19T13:26:01;97012.06;;;17.54;66.76
15604;BME280;7902;49.042;9.092;2023-10-19T13:28:34;97000.06;;;17.59;66.82
15604;BME280;7902;49.042;9.092;2023-10-19T13:31:00;96992.47;;;17.55;67.62